Flight Track Log - Related Links

Times and Time Zones

All times are in EDT time to prevent confusion due to time zone crossing. See the AWI3725 flight status page for this flight to view local times or setup timezone preferences in your user account.


Time Position Orientation Groundspeed Altitude Reporting Facility
EDT Latitude Longitude Course Direction KTS MPH feet Rate Location/Type
Wed 02:06:47 PM 44.8533 -68.9131 221° Southwest 196 226 3,500  Level Boston Center
Wed 02:07:49 PM 44.8133 -68.9789 229° Southwest 226 260 5,100 1,951 Climbing Boston Center
Wed 02:08:50 PM 44.7594 -69.0458 221° Southwest 248 285 7,500 2,213 Climbing Boston Center
Wed 02:09:00 PM 44.4779 -69.2484 226° Southwest  Level FlightAware Approximate
Wed 02:09:51 PM 44.7028 -69.1131 220° Southwest 256 295 9,600  Level Boston Center
Wed 02:10:00 PM 44.4149 -69.3384 226° Southwest  Level FlightAware Approximate
Wed 02:10:53 PM 44.6422 -69.1836 220° Southwest 271 312 11,600  Level Boston Center
Wed 02:11:00 PM 44.3478 -69.4273 221° Southwest  Level FlightAware Approximate
Wed 02:11:54 PM 44.5753 -69.2647 221° Southwest 304 350 13,100  Level Boston Center
Wed 02:12:00 PM 44.2785 -69.5127 221° Southwest  Level FlightAware Approximate
Wed 02:12:55 PM 44.5031 -69.3519 221° Southwest 332 382 14,600  Level Boston Center
Wed 02:13:56 PM 44.4286 -69.4403 220° Southwest 343 395 16,100 1,317 Climbing Boston Center
Wed 02:14:58 PM 44.3514 -69.5317 220° Southwest 355 409 17,300 829 Climbing Boston Center
Wed 02:15:59 PM 44.2703 -69.6283 220° Southwest 374 430 17,800 885 Climbing Boston Center
Wed 02:17:00 PM 44.1894 -69.7261 221° Southwest 383 441 19,100 1,279 Climbing Boston Center
Wed 02:18:01 PM 44.1114 -69.8178 220° Southwest 366 421 20,400 1,268 Climbing Boston Center
Wed 02:19:03 PM 44.0333 -69.9092 220° Southwest 367 422 21,700 927 Climbing Boston Center
Wed 02:20:04 PM 43.9572 -69.9989 220° Southwest 357 411 22,300 541 Climbing Boston Center
Wed 02:21:05 PM 43.8772 -70.0942 221° Southwest 380 437 22,800 689 Climbing Boston Center
Wed 02:22:06 PM 43.7964 -70.1897 220° Southwest 380 437 23,700 934 Climbing Boston Center
Wed 02:23:07 PM 43.7153 -70.2842 220° Southwest 379 436 24,700 976 Climbing Boston Center
Wed 02:24:09 PM 43.6350 -70.3747 219° Southwest 372 428 25,700 780 Climbing Boston Center
Wed 02:25:10 PM 43.5397 -70.4828 219° Southwest 368 423 26,300 541 Climbing Boston Center
Wed 02:26:11 PM 43.4581 -70.5767 220° Southwest 375 432 26,800 492 Climbing Boston Center
Wed 02:27:12 PM 43.3767 -70.6464 212° Southwest 394 453 27,300 488 Climbing Boston Center
Wed 02:28:14 PM 43.2778 -70.7094 205° Southwest 394 453 27,800 488 Climbing Boston Center
Wed 02:29:15 PM 43.1792 -70.7725 205° Southwest 392 451 28,300 541 Climbing Boston Center
Wed 02:30:16 PM 43.0606 -70.8425 203° Southwest 390 449 28,900 541 Climbing Boston Center
Wed 02:31:17 PM 42.9575 -70.8933 200° South 392 451 29,400 492 Climbing Boston Center
Wed 02:32:18 PM 42.8550 -70.9442 200° South 392 451 29,900 295 Climbing Boston Center
Wed 02:33:19 PM 42.7519 -70.9967 201° Southwest 395 455 30,000 49 Climbing Boston Center
Wed 02:34:21 PM 42.6497 -71.0461 200° South 394 453 30,000  Level Boston Center
Wed 02:35:22 PM 42.5475 -71.0958 200° South 394 453 30,000  Level Boston Center
Wed 02:36:23 PM 42.4672 -71.1761 216° Southwest 377 434 30,000  Level Boston Center
Wed 02:37:24 PM 42.4142 -71.2894 238° Southwest 363 418 30,000  Level Boston Center
Wed 02:38:25 PM 42.3611 -71.4011 237° Southwest 359 413 30,000  Level Boston Center
Wed 02:39:27 PM 42.2961 -71.5350 237° Southwest 359 413 30,000  Level Boston Center
Wed 02:40:28 PM 42.2419 -71.6481 237° Southwest 359 413 30,000  Level Boston Center
Wed 02:41:29 PM 42.1883 -71.7594 237° Southwest 359 413 30,000  Level Boston Center
Wed 02:42:30 PM 42.1344 -71.8708 237° Southwest 359 413 30,000  Level Boston Center
Wed 02:43:32 PM 42.0814 -71.9814 237° Southwest 355 409 30,000  Level Boston Center
Wed 02:44:33 PM 42.0269 -72.0928 237° Southwest 355 409 30,000  Level Boston Center
Wed 02:45:34 PM 41.9706 -72.2061 236° Southwest 357 411 30,000  Level Boston Center
Wed 02:46:35 PM 41.9158 -72.3192 237° Southwest 358 412 30,000  Level Boston Center
Wed 02:47:36 PM 41.8594 -72.4331 236° Southwest 362 417 30,000  Level Boston Center
Wed 02:48:38 PM 41.8022 -72.5464 236° Southwest 363 418 30,000  Level Boston Center
Wed 02:49:39 PM 41.7453 -72.6633 237° Southwest 369 425 30,000  Level Boston Center
Wed 02:50:40 PM 41.6869 -72.7778 236° Southwest 370 426 30,000  Level Boston Center
Wed 02:51:41 PM 41.6181 -72.9169 237° Southwest 371 427 30,000  Level Boston Center
Wed 02:52:42 PM 41.5600 -73.0328 236° Southwest 372 428 30,000  Level Boston Center
Wed 02:53:44 PM 41.5058 -73.1392 236° Southwest 373 429 30,000  Level Boston Center
Wed 02:54:45 PM 41.4472 -73.2556 236° Southwest 375 432 30,000  Level Boston Center
Wed 02:55:46 PM 41.3894 -73.3675 235° Southwest 375 432 30,000  Level Boston Center
Wed 02:56:47 PM 41.3192 -73.5039 236° Southwest 374 430 30,000  Level Boston Center
Wed 02:57:49 PM 41.2600 -73.6169 235° Southwest 374 430 30,000  Level Boston Center
Wed 02:58:50 PM 41.1961 -73.7236 232° Southwest 374 430 30,000  Level Boston Center
Wed 02:59:51 PM 41.1319 -73.8314 232° Southwest 374 430 30,000  Level Boston Center
Wed 03:00:51 PM 41.0711 -73.9389 233° Southwest 384 442 30,000 -300 Level New York Center
Wed 03:01:51 PM 41.0058 -74.0486 232° Southwest 384 442 29,400 -800 Descending New York Center
Wed 03:02:51 PM 40.9381 -74.1606 231° Southwest 389 448 28,400 -694 Descending New York Center
Wed 03:03:52 PM 40.8592 -74.2883 231° Southwest 395 455 28,000 -200 Descending New York Center
Wed 03:04:51 PM 40.7933 -74.4003 232° Southwest 395 455 28,000  Level New York Center
Wed 03:05:51 PM 40.7253 -74.5089 230° Southwest 395 455 28,000  Level New York Center
Wed 03:06:51 PM 40.6594 -74.6147 231° Southwest 395 455 28,000  Level New York Center
Wed 03:07:51 PM 40.5956 -74.7231 232° Southwest 390 449 28,000  Level New York Center
Wed 03:08:51 PM 40.5275 -74.8231 228° Southwest 385 443 28,000  Level New York Center
Wed 03:09:51 PM 40.4572 -74.9225 227° Southwest 385 443 28,000 -400 Level New York Center
Wed 03:10:51 PM 40.3872 -75.0192 226° Southwest 379 436 27,200 -1,200 Descending New York Center
Wed 03:11:51 PM 40.3167 -75.1236 228° Southwest 380 437 25,600 -1,550 Descending New York Center
Wed 03:12:51 PM 40.2486 -75.2172 226° Southwest 388 447 24,100 -1,500 Descending New York Center
Wed 03:13:51 PM 40.1867 -75.3083 228° Southwest 374 430 22,600 -1,050 Descending New York Center
Wed 03:14:51 PM 40.1394 -75.4003 236° Southwest 340 391 22,000 -300 Descending New York Center
Wed 03:15:51 PM 40.1003 -75.4928 241° Southwest 311 358 22,000  Level New York Center
Wed 03:16:51 PM 40.0586 -75.5956 242° Southwest 306 352 22,000 -500 Level New York Center
Wed 03:17:51 PM 40.0189 -75.7014 244° Southwest 316 364 21,000 -1,000 Descending New York Center
Wed 03:18:51 PM 39.9747 -75.8092 242° Southwest 334 384 20,000 -1,200 Descending New York Center
Wed 03:19:51 PM 39.9306 -75.9144 241° Southwest 334 384 18,600 -1,450 Descending New York Center
Wed 03:20:51 PM 39.8861 -76.0247 242° Southwest 327 376 17,100 -1,579 Descending New York Center
Wed 03:22:23 PM 39.8167 -76.1833 240° Southwest 315 362 14,600 -1,569 Descending Potomac TRACON
Wed 03:23:24 PM 39.7833 -76.2833 247° West 301 346 13,100 -1,289 Descending Potomac TRACON
Wed 03:24:24 PM 39.7667 -76.3833 258° West 290 334 12,000 -950 Descending Potomac TRACON
Wed 03:25:24 PM 39.7833 -76.4833 282° West 281 323 11,200 -895 Descending Potomac TRACON
Wed 03:26:18 PM 39.7667 -76.5500 252° West 252 290 10,300 -1,091 Descending Potomac TRACON
Wed 03:27:25 PM 39.7167 -76.6333 232° Southwest 246 283 9,000 -614 Descending Potomac TRACON
Wed 03:28:25 PM 39.6667 -76.6833 218° Southwest 248 285 9,000 -250 Level Potomac TRACON
Wed 03:29:25 PM 39.6000 -76.7333 210° Southwest 253 291 8,500 -500 Descending Potomac TRACON
Wed 03:30:25 PM 39.5500 -76.8000 226° Southwest 251 289 8,000 -368 Descending Potomac TRACON
Wed 03:31:19 PM 39.5000 -76.8333 207° Southwest 247 284 7,800 -835 Descending Potomac TRACON
Wed 03:32:20 PM 39.4333 -76.8833 210° Southwest 235 270 6,400 -893 Descending Potomac TRACON
Wed 03:33:20 PM 39.3833 -76.9333 218° Southwest 227 261 6,000 -200 Descending Potomac TRACON
Wed 03:34:20 PM 39.3333 -76.9833 218° Southwest 235 270 6,000 -200 Level Potomac TRACON
Wed 03:35:20 PM 39.2833 -77.0333 218° Southwest 236 272 5,600 -522 Descending Potomac TRACON
Wed 03:36:15 PM 39.2333 -77.0833 218° Southwest 228 262 5,000 -595 Descending Potomac TRACON
Wed 03:37:21 PM 39.1833 -77.1333 218° Southwest 231 266 4,400 -500 Descending Potomac TRACON
Wed 03:38:15 PM 39.1333 -77.1667 207° Southwest 232 267 4,000 -200 Descending Potomac TRACON
Wed 03:39:21 PM 39.0833 -77.2333 226° Southwest 227 261 4,000  Level Potomac TRACON
Wed 03:40:16 PM 39.0333 -77.2667 207° Southwest 232 267 4,000  Level Potomac TRACON
Wed 03:41:16 PM 38.9667 -77.2500 169° South 244 281 4,000  Level Potomac TRACON
Wed 03:42:16 PM 38.9000 -77.2333 169° South 243 280 4,000  Level Potomac TRACON
Wed 03:43:17 PM 38.8333 -77.2000 159° South 241 277 4,000  Level Potomac TRACON
Wed 03:44:11 PM 38.7833 -77.1833 165° South 187 215 4,000  Level Potomac TRACON
Wed 03:45:12 PM 38.7333 -77.1500 153° Southeast 177 204 4,000  Level Potomac TRACON
Wed 03:46:12 PM 38.6833 -77.1333 165° South 189 217 4,000 -526 Level Potomac TRACON
Wed 03:47:06 PM 38.6500 -77.1167 159° South 198 228 3,000 -783 Descending Potomac TRACON
Wed 03:48:07 PM 38.6500 -77.0333 90° East 194 223 2,500 -248 Descending Potomac TRACON
Wed 03:49:07 PM 38.7000 -77.0167 15° North 196 226 2,500 -263 Level Potomac TRACON
Wed 03:50:01 PM 38.7500 -77.0333 345° North 193 222 2,000 -800 Descending Potomac TRACON
Wed 03:51:07 PM 38.8000 -77.0333 360° North 165 190 900 -1,000 Descending Potomac TRACON

Login

Don't have an account? Register now (free) for customized features, flight alerts, and more!